createdAt,value
2023-01-29T00:02:19.705Z,102252.88
2023-01-29T00:04:49.223Z,102251.03
2023-01-29T00:07:17.172Z,102251.66
2023-01-29T00:09:52.518Z,102252.81
2023-01-29T00:12:20.500Z,102251.44
2023-01-29T00:14:48.330Z,102248.69
2023-01-29T00:17:16.368Z,102242.69
2023-01-29T00:19:44.219Z,102244.28
2023-01-29T00:22:13.675Z,102240.81
2023-01-29T00:24:41.438Z,102242.50
2023-01-29T00:27:09.384Z,102236.63
2023-01-29T00:29:37.159Z,102237.72
2023-01-29T00:32:05.636Z,102238.03
2023-01-29T00:34:33.723Z,102230.66
2023-01-29T00:37:09.016Z,102236.59
2023-01-29T00:39:47.720Z,102237.16
2023-01-29T00:42:33.639Z,102238.19
2023-01-29T00:45:01.551Z,102234.56
2023-01-29T00:47:33.550Z,102231.50
2023-01-29T00:50:02.197Z,102244.13
2023-01-29T00:52:30.403Z,102241.50
2023-01-29T00:55:01.476Z,102236.16
2023-01-29T00:57:31.981Z,102228.97
2023-01-29T01:00:00.325Z,102232.66
2023-01-29T01:02:46.778Z,102238.78
2023-01-29T01:05:18.919Z,102239.56
2023-01-29T01:07:48.932Z,102235.44
2023-01-29T01:10:22.575Z,102235.38
2023-01-29T01:12:54.574Z,102227.66
2023-01-29T01:15:23.587Z,102220.09
2023-01-29T01:17:54.021Z,102213.06
2023-01-29T01:20:23.288Z,102212.41
2023-01-29T01:22:54.201Z,102220.19
2023-01-29T01:25:23.982Z,102210.59
2023-01-29T01:27:53.906Z,102212.72
2023-01-29T01:30:22.210Z,102210.97
2023-01-29T01:32:50.552Z,102190.97
2023-01-29T01:35:18.872Z,102197.56
2023-01-29T01:37:46.865Z,102190.28
2023-01-29T01:40:18.987Z,102187.19
2023-01-29T01:42:50.967Z,102186.38
2023-01-29T01:45:21.662Z,102184.31
2023-01-29T01:47:54.854Z,102188.53
2023-01-29T01:50:27.850Z,102176.38
2023-01-29T01:53:00.932Z,102166.38
2023-01-29T01:55:32.772Z,102174.53
2023-01-29T01:58:07.701Z,102169.16
2023-01-29T02:00:35.590Z,102180.28
2023-01-29T02:03:22.566Z,102173.75
2023-01-29T02:06:09.536Z,102176.22
2023-01-29T02:09:03.895Z,102185.59
2023-01-29T02:11:32.215Z,102176.97
2023-01-29T02:14:01.764Z,102187.06
2023-01-29T02:16:29.833Z,102185.69
2023-01-29T02:18:58.190Z,102186.31
2023-01-29T02:21:42.898Z,102187.25
2023-01-29T02:24:46.312Z,102196.13
2023-01-29T02:27:18.202Z,102196.19
2023-01-29T02:29:56.166Z,102199.81
2023-01-29T02:32:31.826Z,102208.81
2023-01-29T02:35:29.801Z,102213.03
2023-01-29T02:38:06.897Z,102211.19
2023-01-29T02:40:42.066Z,102212.13
2023-01-29T02:43:19.928Z,102220.94
2023-01-29T02:45:55.187Z,102224.91
2023-01-29T02:48:26.607Z,102228.47
2023-01-29T02:51:00.553Z,102222.47
2023-01-29T02:53:35.858Z,102225.13
2023-01-29T02:56:11.312Z,102222.66
2023-01-29T02:58:44.365Z,102212.69
2023-01-29T03:01:18.552Z,102222.50
2023-01-29T03:03:53.817Z,102210.88
2023-01-29T03:06:26.235Z,102204.34
2023-01-29T03:08:58.786Z,102199.56
2023-01-29T03:11:30.717Z,102202.09
2023-01-29T03:14:03.829Z,102188.97
2023-01-29T03:16:37.884Z,102183.44
2023-01-29T03:19:09.829Z,102189.09
2023-01-29T03:22:00.077Z,102186.50
2023-01-29T03:24:56.211Z,102189.41
2023-01-29T03:27:48.484Z,102177.34
2023-01-29T03:30:38.915Z,102176.56
2023-01-29T03:33:25.518Z,102173.22
2023-01-29T03:36:00.894Z,102179.81
2023-01-29T03:38:31.710Z,102177.66
2023-01-29T03:41:09.091Z,102176.81
2023-01-29T03:43:44.479Z,102177.44
2023-01-29T03:46:19.418Z,102177.63
2023-01-29T03:48:56.846Z,102170.41
2023-01-29T03:51:31.278Z,102169.56
2023-01-29T03:54:08.580Z,102179.38
2023-01-29T03:56:45.279Z,102171.16
2023-01-29T03:59:36.073Z,102158.72
2023-01-29T04:02:36.142Z,102156.41
2023-01-29T04:05:15.876Z,102151.22
2023-01-29T04:08:00.364Z,102149.97
2023-01-29T04:10:30.536Z,102145.47
2023-01-29T04:13:03.211Z,102145.03
2023-01-29T04:15:37.502Z,102134.34
2023-01-29T04:18:06.137Z,102127.66
2023-01-29T04:20:56.908Z,102122.38
2023-01-29T04:23:27.022Z,102125.50
2023-01-29T04:26:15.525Z,102123.22
2023-01-29T04:28:54.960Z,102103.53
2023-01-29T04:31:29.321Z,102098.44
2023-01-29T04:34:08.157Z,102095.69
2023-01-29T04:36:43.718Z,102092.50
2023-01-29T04:39:19.358Z,102088.31
2023-01-29T04:41:55.058Z,102079.53
2023-01-29T04:44:31.114Z,102074.44
2023-01-29T04:47:07.972Z,102070.47
2023-01-29T04:49:44.491Z,102078.53
2023-01-29T04:52:22.156Z,102080.56
2023-01-29T04:55:02.481Z,102077.78
2023-01-29T04:57:35.513Z,102084.00
2023-01-29T05:00:09.737Z,102073.38
2023-01-29T05:02:42.027Z,102069.50
2023-01-29T05:05:12.258Z,102072.81
2023-01-29T05:07:43.833Z,102071.53
2023-01-29T05:10:15.860Z,102071.72
2023-01-29T05:12:47.700Z,102072.66
2023-01-29T05:15:19.245Z,102081.28
2023-01-29T05:17:47.130Z,102076.53
2023-01-29T05:20:15.173Z,102067.09
2023-01-29T05:22:45.947Z,102064.72
2023-01-29T05:25:22.594Z,102062.19
2023-01-29T05:28:06.689Z,102069.25
2023-01-29T05:30:36.268Z,102065.72
2023-01-29T05:33:04.976Z,102075.63
2023-01-29T05:35:33.097Z,102073.75
2023-01-29T05:38:02.325Z,102085.44
2023-01-29T05:40:30.318Z,102094.00
2023-01-29T05:42:58.241Z,102081.38
2023-01-29T05:45:26.388Z,102087.16
2023-01-29T05:47:57.066Z,102085.31
2023-01-29T05:50:25.794Z,102089.13
2023-01-29T05:52:57.882Z,102078.03
2023-01-29T05:55:29.307Z,102087.50
2023-01-29T05:57:57.193Z,102085.66
2023-01-29T06:00:25.584Z,102099.63
2023-01-29T06:02:54.063Z,102103.69
2023-01-29T06:05:22.065Z,102112.66
2023-01-29T06:07:50.039Z,102113.84
2023-01-29T06:10:19.810Z,102101.41
2023-01-29T06:12:49.290Z,102103.69
2023-01-29T06:15:19.644Z,102109.16
2023-01-29T06:17:47.677Z,102111.22
2023-01-29T06:20:15.906Z,102100.59
2023-01-29T06:22:44.043Z,102094.16
2023-01-29T06:25:11.908Z,102084.81
2023-01-29T06:27:39.767Z,102092.50
2023-01-29T06:30:12.725Z,102097.72
2023-01-29T06:32:40.589Z,102098.16
2023-01-29T06:35:10.172Z,102102.00
2023-01-29T06:37:38.476Z,102100.59
2023-01-29T06:40:07.236Z,102104.78
2023-01-29T06:42:36.614Z,102095.97
2023-01-29T06:45:05.002Z,102096.59
2023-01-29T06:47:34.460Z,102099.63
2023-01-29T06:50:02.530Z,102095.69
2023-01-29T06:52:30.405Z,102095.44
2023-01-29T06:54:58.410Z,102086.19
2023-01-29T06:57:26.301Z,102086.56
2023-01-29T06:59:54.119Z,102113.66
2023-01-29T07:02:21.979Z,102122.75
2023-01-29T07:04:51.142Z,102139.56
2023-01-29T07:07:19.006Z,102138.22
2023-01-29T07:09:46.878Z,102133.47
2023-01-29T07:12:14.741Z,102137.03
2023-01-29T07:14:42.582Z,102136.72
2023-01-29T07:17:10.370Z,102144.94
2023-01-29T07:19:38.262Z,102136.09
2023-01-29T07:22:07.582Z,102127.94
2023-01-29T07:24:35.463Z,102120.47
2023-01-29T07:27:03.386Z,102121.56
2023-01-29T07:29:31.174Z,102122.59
2023-01-29T07:31:59.289Z,102112.38
2023-01-29T07:34:27.367Z,102083.75
2023-01-29T07:36:56.847Z,102088.47
2023-01-29T07:39:26.019Z,102092.19
2023-01-29T07:41:54.053Z,102096.16
2023-01-29T07:44:24.063Z,102094.31
2023-01-29T07:46:52.026Z,102097.38
2023-01-29T07:49:19.890Z,102095.06
2023-01-29T07:51:47.733Z,102080.66
2023-01-29T07:54:15.816Z,102077.91
2023-01-29T07:56:45.082Z,102056.00
2023-01-29T07:59:12.936Z,102046.03
2023-01-29T08:01:40.899Z,102037.69
2023-01-29T08:04:08.672Z,102042.06
2023-01-29T08:06:36.487Z,102048.75
2023-01-29T08:09:04.415Z,102065.75
2023-01-29T08:11:32.238Z,102059.03
2023-01-29T08:14:01.475Z,102053.38
2023-01-29T08:16:29.381Z,102057.25
2023-01-29T08:18:57.199Z,102056.47
2023-01-29T08:21:25.011Z,102051.75
2023-01-29T08:23:52.871Z,102062.28
2023-01-29T08:26:20.741Z,102055.16
2023-01-29T08:28:48.525Z,102057.59
2023-01-29T08:31:20.531Z,102053.97
2023-01-29T08:33:48.498Z,102064.16
2023-01-29T08:36:16.670Z,102063.22
2023-01-29T08:38:44.563Z,102059.16
2023-01-29T08:41:12.438Z,102059.88
2023-01-29T08:43:40.605Z,102057.69
2023-01-29T08:46:13.937Z,102051.94
2023-01-29T08:48:46.855Z,102051.56
2023-01-29T08:51:15.977Z,102046.63
2023-01-29T08:53:45.303Z,102044.41
2023-01-29T08:56:13.550Z,102045.63
2023-01-29T08:58:41.322Z,102047.88
2023-01-29T09:01:10.506Z,102042.28
2023-01-29T09:03:40.907Z,102034.75
2023-01-29T09:06:11.112Z,102037.06
2023-01-29T09:08:39.505Z,102046.47
2023-01-29T09:11:07.974Z,102044.63
2023-01-29T09:13:35.970Z,102048.94
2023-01-29T09:16:05.399Z,102035.28
2023-01-29T09:18:33.129Z,102029.97
2023-01-29T09:21:02.551Z,102014.41
2023-01-29T09:23:32.108Z,102010.59
2023-01-29T09:26:00.518Z,101999.22
2023-01-29T09:28:28.847Z,102004.38
2023-01-29T09:30:57.079Z,102006.84
2023-01-29T09:33:26.150Z,102000.25
2023-01-29T09:35:53.938Z,102001.94
2023-01-29T09:38:21.847Z,102001.00
2023-01-29T09:40:58.918Z,102000.13
2023-01-29T09:43:40.324Z,101998.09
2023-01-29T09:46:18.559Z,101995.41
2023-01-29T09:48:47.815Z,101995.56
2023-01-29T09:51:23.741Z,101996.84
2023-01-29T09:53:58.522Z,101994.91
2023-01-29T09:56:29.070Z,101997.75
2023-01-29T09:59:01.351Z,101992.50
2023-01-29T10:01:38.183Z,101993.69
2023-01-29T10:04:29.787Z,101978.03
2023-01-29T10:07:09.367Z,101987.94
2023-01-29T10:09:58.266Z,101968.66
2023-01-29T10:12:47.261Z,101982.75
2023-01-29T10:15:29.019Z,101978.94
2023-01-29T10:18:16.100Z,101967.31
2023-01-29T10:20:56.347Z,101977.41
2023-01-29T10:23:27.860Z,101976.50
2023-01-29T10:25:56.235Z,101976.41
2023-01-29T10:28:31.209Z,101983.69
2023-01-29T10:31:03.552Z,101986.84
2023-01-29T10:33:49.540Z,101983.81
2023-01-29T10:36:33.804Z,101985.84
2023-01-29T10:39:01.813Z,101993.13
2023-01-29T10:42:03.718Z,101980.53
2023-01-29T10:44:44.383Z,101970.59
2023-01-29T10:47:49.294Z,101968.59
2023-01-29T10:50:24.717Z,101955.22
2023-01-29T10:53:08.248Z,101963.06
2023-01-29T10:55:48.468Z,101958.84
2023-01-29T10:58:28.614Z,101949.50
2023-01-29T11:00:57.890Z,101935.97
2023-01-29T11:03:29.041Z,101941.53
2023-01-29T11:06:09.115Z,101923.47
2023-01-29T11:08:41.542Z,101923.91
2023-01-29T11:11:14.054Z,101910.44
2023-01-29T11:13:48.159Z,101908.78
2023-01-29T11:16:17.539Z,101918.88
2023-01-29T11:18:55.192Z,101907.28
2023-01-29T11:21:24.457Z,101909.84
2023-01-29T11:23:52.753Z,101908.72
2023-01-29T11:26:24.241Z,101908.06
2023-01-29T11:28:52.574Z,101895.44
2023-01-29T11:31:24.481Z,101896.19
2023-01-29T11:33:55.183Z,101892.41
2023-01-29T11:36:32.857Z,101883.38
2023-01-29T11:39:21.599Z,101891.00
2023-01-29T11:41:58.326Z,101876.34
2023-01-29T11:44:32.192Z,101861.44
2023-01-29T11:47:18.083Z,101871.25
2023-01-29T11:49:49.174Z,101860.63
2023-01-29T11:52:19.874Z,101861.13
2023-01-29T11:54:51.852Z,101858.56
2023-01-29T11:57:27.431Z,101849.97
2023-01-29T11:59:57.983Z,101841.38
2023-01-29T12:02:34.301Z,101845.41
2023-01-29T12:05:05.659Z,101835.94
2023-01-29T12:07:35.520Z,101824.13
2023-01-29T12:10:04.540Z,101828.81
2023-01-29T12:12:37.946Z,101829.41
2023-01-29T12:15:16.999Z,101826.53
2023-01-29T12:17:51.942Z,101824.81
2023-01-29T12:20:25.359Z,101821.97
2023-01-29T12:23:02.384Z,101821.78
2023-01-29T12:25:41.612Z,101815.13
2023-01-29T12:28:21.185Z,101818.72
2023-01-29T12:30:56.048Z,101816.06
2023-01-29T12:33:39.238Z,101812.63
2023-01-29T12:36:22.056Z,101817.72
2023-01-29T12:38:50.280Z,101808.13
2023-01-29T12:41:29.964Z,101810.09
2023-01-29T12:44:03.737Z,101809.56
2023-01-29T12:46:38.889Z,101810.13
2023-01-29T12:49:17.594Z,101802.94
2023-01-29T12:51:56.648Z,101794.06
2023-01-29T12:54:32.380Z,101791.41
2023-01-29T12:57:06.044Z,101784.56
2023-01-29T12:59:41.032Z,101788.50
2023-01-29T13:02:20.726Z,101786.34
2023-01-29T13:05:01.137Z,101785.22
2023-01-29T13:07:33.362Z,101779.94
2023-01-29T13:10:08.395Z,101770.75
2023-01-29T13:12:38.131Z,101767.09
2023-01-29T13:15:16.653Z,101762.69
2023-01-29T13:17:48.672Z,101756.41
2023-01-29T13:20:24.098Z,101763.56
2023-01-29T13:22:56.735Z,101753.84
2023-01-29T13:25:26.642Z,101752.44
2023-01-29T13:27:54.921Z,101739.19
2023-01-29T13:30:27.925Z,101744.44
2023-01-29T13:33:09.043Z,101727.22
2023-01-29T13:35:42.920Z,101730.94
2023-01-29T13:38:25.462Z,101735.63
2023-01-29T13:40:56.874Z,101732.78
2023-01-29T13:43:25.353Z,101737.97
2023-01-29T13:45:55.589Z,101725.41
2023-01-29T13:48:27.180Z,101721.25
2023-01-29T13:51:00.711Z,101711.03
2023-01-29T13:53:33.053Z,101697.63
2023-01-29T13:56:33.966Z,101697.53
2023-01-29T13:59:03.242Z,101697.78
2023-01-29T14:02:03.830Z,101697.47
2023-01-29T14:04:34.197Z,101691.47
2023-01-29T14:07:04.165Z,101692.53
2023-01-29T14:10:14.093Z,101687.81
2023-01-29T14:13:15.004Z,101689.38
2023-01-29T14:15:42.860Z,101682.56
2023-01-29T14:18:20.610Z,101679.69
2023-01-29T14:21:22.032Z,101677.44
2023-01-29T14:23:53.665Z,101676.97
2023-01-29T14:26:30.020Z,101671.69
2023-01-29T14:29:01.605Z,101679.69
2023-01-29T14:31:40.845Z,101667.00
2023-01-29T14:34:17.869Z,101662.56
2023-01-29T14:36:47.333Z,101657.19
2023-01-29T14:39:26.158Z,101662.91
2023-01-29T14:41:54.181Z,101654.28
2023-01-29T14:45:05.137Z,101652.50
2023-01-29T14:47:56.326Z,101653.50
2023-01-29T14:50:59.210Z,101654.66
2023-01-29T14:53:45.760Z,101656.41
2023-01-29T14:56:18.447Z,101647.41
2023-01-29T14:58:49.192Z,101643.88
2023-01-29T15:01:23.340Z,101651.59
2023-01-29T15:03:53.304Z,101643.78
2023-01-29T15:06:31.608Z,101644.84
2023-01-29T15:09:06.904Z,101644.66
2023-01-29T15:11:45.360Z,101645.47
2023-01-29T15:14:24.003Z,101645.97
2023-01-29T15:17:11.617Z,101639.28
2023-01-29T15:19:44.816Z,101637.41
2023-01-29T15:22:14.277Z,101636.59
2023-01-29T15:24:44.734Z,101638.25
2023-01-29T15:27:16.932Z,101641.81
2023-01-29T15:29:51.118Z,101636.97
2023-01-29T15:32:30.789Z,101624.88
2023-01-29T15:35:00.344Z,101633.78
2023-01-29T15:37:30.870Z,101617.31
2023-01-29T15:40:00.135Z,101616.66
2023-01-29T15:42:30.426Z,101615.22
2023-01-29T15:44:58.257Z,101602.22
2023-01-29T15:47:30.052Z,101595.06
2023-01-29T15:49:58.395Z,101605.28
2023-01-29T15:52:29.776Z,101598.59
2023-01-29T15:55:02.665Z,101593.69
2023-01-29T15:57:37.267Z,101588.03
2023-01-29T16:00:07.756Z,101593.97
2023-01-29T16:02:42.759Z,101591.94
2023-01-29T16:05:17.359Z,101584.34
2023-01-29T16:07:46.649Z,101585.47
2023-01-29T16:10:20.176Z,101582.78
2023-01-29T16:12:52.180Z,101577.50
2023-01-29T16:15:37.302Z,101575.16
2023-01-29T16:18:20.981Z,101567.78
2023-01-29T16:20:53.331Z,101569.00
2023-01-29T16:23:25.315Z,101566.16
2023-01-29T16:25:53.391Z,101565.16
2023-01-29T16:28:25.565Z,101559.84
2023-01-29T16:30:58.061Z,101551.72
2023-01-29T16:33:34.291Z,101548.56
2023-01-29T16:36:05.452Z,101545.63
2023-01-29T16:38:36.757Z,101543.75
2023-01-29T16:41:14.656Z,101549.25
2023-01-29T16:43:53.076Z,101540.97
2023-01-29T16:46:32.838Z,101533.38
2023-01-29T16:49:01.288Z,101525.97
2023-01-29T16:51:31.345Z,101532.63
2023-01-29T16:54:01.740Z,101521.44
2023-01-29T16:56:33.223Z,101513.94
2023-01-29T16:59:05.502Z,101515.56
2023-01-29T17:01:36.462Z,101510.63
2023-01-29T17:04:11.175Z,101503.19
2023-01-29T17:06:41.261Z,101500.75
2023-01-29T17:09:09.381Z,101499.59
2023-01-29T17:11:39.826Z,101494.91
2023-01-29T17:14:11.207Z,101489.13
2023-01-29T17:16:50.527Z,101487.34
2023-01-29T17:19:20.675Z,101489.03
2023-01-29T17:21:48.764Z,101484.38
2023-01-29T17:24:16.518Z,101488.03
2023-01-29T17:26:44.599Z,101482.66
2023-01-29T17:29:18.502Z,101497.41
2023-01-29T17:31:46.267Z,101495.59
2023-01-29T17:34:15.881Z,101492.41
2023-01-29T17:36:44.398Z,101491.13
2023-01-29T17:39:20.833Z,101491.50
2023-01-29T17:41:52.007Z,101490.00
2023-01-29T17:44:21.249Z,101486.81
2023-01-29T17:46:49.761Z,101475.53
2023-01-29T17:49:24.115Z,101469.41
2023-01-29T17:51:52.235Z,101466.19
2023-01-29T17:54:20.186Z,101452.06
2023-01-29T17:56:48.098Z,101452.69
2023-01-29T17:59:17.478Z,101453.59
2023-01-29T18:01:47.183Z,101451.88
2023-01-29T18:04:15.377Z,101448.63
2023-01-29T18:06:45.108Z,101450.13
2023-01-29T18:09:14.704Z,101436.16
2023-01-29T18:11:42.728Z,101441.31
2023-01-29T18:14:14.439Z,101429.88
2023-01-29T18:16:44.003Z,101437.13
2023-01-29T18:19:19.700Z,101430.88
2023-01-29T18:21:47.628Z,101428.19
2023-01-29T18:24:15.767Z,101422.91
2023-01-29T18:26:43.832Z,101426.56
2023-01-29T18:29:11.631Z,101416.22
2023-01-29T18:31:39.513Z,101404.47
2023-01-29T18:34:07.999Z,101403.75
2023-01-29T18:36:37.149Z,101396.75
2023-01-29T18:39:05.174Z,101401.72
2023-01-29T18:41:34.001Z,101396.50
2023-01-29T18:44:01.901Z,101402.47
2023-01-29T18:46:29.698Z,101402.81
2023-01-29T18:48:57.503Z,101400.72
2023-01-29T18:51:25.264Z,101398.69
2023-01-29T18:53:54.444Z,101389.03
2023-01-29T18:56:22.239Z,101383.25
2023-01-29T18:58:52.365Z,101377.69
2023-01-29T19:01:23.712Z,101367.53
2023-01-29T19:03:52.039Z,101363.28
2023-01-29T19:06:19.851Z,101360.59
2023-01-29T19:08:47.946Z,101348.44
2023-01-29T19:11:17.117Z,101342.00
2023-01-29T19:13:46.037Z,101335.41
2023-01-29T19:16:14.205Z,101336.13
2023-01-29T19:18:42.018Z,101324.56
2023-01-29T19:21:11.732Z,101317.34
2023-01-29T19:23:39.945Z,101309.69
2023-01-29T19:26:09.397Z,101300.53
2023-01-29T19:28:38.545Z,101292.38
2023-01-29T19:31:06.455Z,101292.34
2023-01-29T19:33:34.698Z,101280.06
2023-01-29T19:36:03.015Z,101270.19
2023-01-29T19:38:33.445Z,101275.66
2023-01-29T19:41:01.326Z,101262.59
2023-01-29T19:43:30.438Z,101273.19
2023-01-29T19:46:00.715Z,101265.97
2023-01-29T19:48:28.888Z,101253.44
2023-01-29T19:50:57.985Z,101256.28
2023-01-29T19:53:28.118Z,101264.19
2023-01-29T19:56:00.132Z,101251.88
2023-01-29T19:58:28.060Z,101246.56
2023-01-29T20:00:57.205Z,101231.78
2023-01-29T20:03:27.258Z,101234.44
2023-01-29T20:05:55.128Z,101229.81
2023-01-29T20:08:23.886Z,101224.97
2023-01-29T20:10:51.805Z,101229.13
2023-01-29T20:13:19.592Z,101205.22
2023-01-29T20:15:48.193Z,101198.34
2023-01-29T20:18:16.982Z,101199.28
2023-01-29T20:20:47.965Z,101207.19
2023-01-29T20:23:35.255Z,101188.69
2023-01-29T20:26:05.611Z,101199.31
2023-01-29T20:28:33.507Z,101176.47
2023-01-29T20:31:01.644Z,101178.25
2023-01-29T20:33:29.501Z,101170.44
2023-01-29T20:36:00.789Z,101168.50
2023-01-29T20:38:31.462Z,101156.38
2023-01-29T20:41:04.905Z,101155.44
2023-01-29T20:43:33.250Z,101151.00
2023-01-29T20:46:01.971Z,101141.59
2023-01-29T20:48:29.905Z,101150.25
2023-01-29T20:51:04.673Z,101152.66
2023-01-29T20:53:32.531Z,101141.53
2023-01-29T20:56:01.036Z,101138.91
2023-01-29T20:58:29.971Z,101137.19
2023-01-29T21:00:57.923Z,101134.59
2023-01-29T21:03:25.941Z,101129.22
2023-01-29T21:05:54.295Z,101129.22
2023-01-29T21:08:23.478Z,101124.16
2023-01-29T21:10:53.309Z,101120.50
2023-01-29T21:13:21.323Z,101107.25
2023-01-29T21:15:50.554Z,101106.47
2023-01-29T21:18:18.992Z,101117.13
2023-01-29T21:20:46.763Z,101122.03
2023-01-29T21:23:14.855Z,101127.59
2023-01-29T21:25:45.123Z,101126.66
2023-01-29T21:28:13.782Z,101120.50
2023-01-29T21:30:41.927Z,101117.16
2023-01-29T21:33:09.776Z,101111.75
2023-01-29T21:35:38.423Z,101108.13
2023-01-29T21:38:38.933Z,101109.03
2023-01-29T21:41:10.264Z,101095.03
2023-01-29T21:43:37.092Z,101098.75
2023-01-29T21:46:11.454Z,101094.28
2023-01-29T21:48:40.428Z,101092.47
2023-01-29T21:51:08.698Z,101087.25
2023-01-29T21:53:36.678Z,101089.97
2023-01-29T21:56:06.348Z,101077.69
2023-01-29T21:58:35.475Z,101097.78
2023-01-29T22:01:18.570Z,101076.81
2023-01-29T22:03:51.001Z,101080.25
2023-01-29T22:06:18.867Z,101077.69
2023-01-29T22:08:47.069Z,101073.22
2023-01-29T22:11:14.909Z,101050.34
2023-01-29T22:13:44.207Z,101057.44
2023-01-29T22:16:12.100Z,101056.59
2023-01-29T22:18:39.914Z,101039.78
2023-01-29T22:21:07.717Z,101054.00
2023-01-29T22:23:35.500Z,101051.25
2023-01-29T22:26:04.373Z,101045.09
2023-01-29T22:28:32.231Z,101041.66
2023-01-29T22:31:03.141Z,101041.72
2023-01-29T22:33:31.213Z,101044.19
2023-01-29T22:35:59.038Z,101046.09
2023-01-29T22:38:27.103Z,101047.81
2023-01-29T22:40:56.140Z,101032.81
2023-01-29T22:43:25.919Z,101027.69
2023-01-29T22:45:53.862Z,101029.53
2023-01-29T22:48:23.917Z,101021.47
2023-01-29T22:51:10.161Z,101018.78
2023-01-29T22:53:44.417Z,101021.47
2023-01-29T22:56:12.864Z,101020.56
2023-01-29T22:58:41.160Z,101023.13
2023-01-29T23:01:09.803Z,101010.94
2023-01-29T23:03:38.996Z,101010.16
2023-01-29T23:06:06.952Z,100983.75
2023-01-29T23:08:34.886Z,100963.50
2023-01-29T23:11:13.927Z,100957.53
2023-01-29T23:13:43.047Z,100961.91
2023-01-29T23:16:11.240Z,100944.34
2023-01-29T23:18:40.469Z,100903.13
2023-01-29T23:21:08.742Z,100877.72
2023-01-29T23:23:37.813Z,100867.19
2023-01-29T23:26:25.689Z,100840.88
2023-01-29T23:28:53.534Z,100855.81
2023-01-29T23:31:21.390Z,100860.19
2023-01-29T23:33:50.677Z,100855.78
2023-01-29T23:36:18.571Z,100862.78
2023-01-29T23:38:46.476Z,100848.78
2023-01-29T23:41:14.490Z,100859.28
2023-01-29T23:43:42.551Z,100858.44
2023-01-29T23:46:10.681Z,100843.53
2023-01-29T23:48:38.494Z,100844.41
2023-01-29T23:51:07.823Z,100830.34
2023-01-29T23:53:35.760Z,100832.06
2023-01-29T23:56:05.835Z,100824.94
2023-01-29T23:58:34.404Z,100828.53
